Hood River, OR (97031)

6:00 PM PDT on August 29, 2015 (GMT -0700)
KORHOODR7 | | Change Station
CLOSE
Current Station
Personal Weather Station
Location: Hood River, OR
Elevation: 440 ft
Nearby Weather Stations

Elev 440 ft 45.71 °N, 121.54 °W | Updated 23 seconds ago

Overcast
Overcast
66.7 °F
Feels Like 66.7 °F
N
0.0
Wind Variable Wind from West
Gusts 6.0 mph

Today
High -- | Low -- °F
--% Chance of Precip.
Yesterday
High -- | Low -- °F
Precip. -- in
6:23 AM 7:49 PM
Full, 100% visible
Pressure 29.81 in
Visibility 10.0 miles
Clouds Few 10000 ft
Dew Point 57 °F
Humidity 71%
Rainfall 0.05 in
Snow Depth Not available.
UV 1 out of 12
Pollen .20 out of 12
Air Quality Not available.
Flu Activity Not available.
METAR KDLS 300053Z AUTO 31013G18KT 10SM FEW100 22/11 A2982 RMK AO2 SLP094 T02220111
Pressure 29.81 in
Visibility 10.0 miles
Clouds Few 10000 ft
Dew Point 57 °F
Humidity 71%
Rainfall 0.05 in
Snow Depth Not available.
UV 1 out of 12
Pollen .20 out of 12
Air Quality Not available.
Flu Activity Not available.
METAR KDLS 300053Z AUTO 31013G18KT 10SM FEW100 22/11 A2982 RMK AO2 SLP094 T02220111

10-Day Weather Forecast

×

Almanac

Astronomy

Aug. 29, 2015 Rise Set
Actual Time
Civil Twilight
Nautical Twilight
Astronomical Twilight
Moon
Length of Visible Light
Length of Day
Tomorrow will be .
, % of the Moon is Illuminated

Today's Extremes

State Highs State Lows

Community

WunderPhotos

Upload Photos

1,850,823 photos uploaded!

WunderBlogs® & News

Nearby

Air Quality

  Air Quality AQ Index Pollutant
Not available.

Snow Depth

Station Depth Elevation

Earthquake Activity

City Distance Mag. Time & Date
Minimum magnitude displayed is 2.5.

Coastal Water Temperatures

Place Temperature

Stations

Nearby Weather Stations

Station Location Temp. Windchill Dew Point Humidity Wind Precip. Elev Updated Type